createdAt,value
2022-10-28T00:01:17.598Z,66.50
2022-10-28T00:03:47.425Z,66.00
2022-10-28T00:06:16.604Z,66.10
2022-10-28T00:08:43.704Z,65.60
2022-10-28T00:11:19.082Z,65.60
2022-10-28T00:13:46.518Z,65.10
2022-10-28T00:16:19.159Z,65.00
2022-10-28T00:18:46.987Z,64.80
2022-10-28T00:21:17.080Z,65.00
2022-10-28T00:23:44.015Z,64.80
2022-10-28T00:26:12.207Z,64.70
2022-10-28T00:28:43.931Z,64.60
2022-10-28T00:31:11.870Z,64.50
2022-10-28T00:33:39.042Z,64.20
2022-10-28T00:36:14.637Z,64.30
2022-10-28T00:38:42.273Z,64.10
2022-10-28T00:41:10.273Z,64.20
2022-10-28T00:43:43.135Z,64.20
2022-10-28T00:46:35.018Z,64.30
2022-10-28T00:49:11.238Z,64.20
2022-10-28T00:51:38.110Z,64.40
2022-10-28T00:54:05.715Z,64.40
2022-10-28T00:56:39.621Z,64.30
2022-10-28T00:59:13.043Z,64.60
2022-10-28T01:01:39.800Z,64.70
2022-10-28T01:04:06.958Z,63.80
2022-10-28T01:06:33.648Z,63.40
2022-10-28T01:09:00.479Z,63.20
2022-10-28T01:11:39.147Z,63.00
2022-10-28T01:14:27.115Z,62.90
2022-10-28T01:17:16.924Z,63.40
2022-10-28T01:20:12.250Z,62.30
2022-10-28T01:23:02.694Z,62.50
2022-10-28T01:25:56.601Z,62.10
2022-10-28T01:28:29.286Z,62.00
2022-10-28T01:31:10.117Z,62.10
2022-10-28T01:33:43.541Z,61.70
2022-10-28T01:36:14.733Z,61.80
2022-10-28T01:39:05.727Z,61.80
2022-10-28T01:41:45.403Z,61.20
2022-10-28T01:44:31.547Z,61.20
2022-10-28T01:47:12.341Z,61.20
2022-10-28T01:49:44.809Z,61.10
2022-10-28T01:52:13.836Z,60.70
2022-10-28T01:54:44.471Z,60.70
2022-10-28T01:57:13.001Z,60.80
2022-10-28T01:59:40.248Z,60.50
2022-10-28T02:02:06.958Z,60.30
2022-10-28T02:04:33.693Z,60.40
2022-10-28T02:07:00.948Z,60.40
2022-10-28T02:10:05.430Z,60.30
2022-10-28T02:12:34.543Z,59.70
2022-10-28T02:15:15.020Z,59.80
2022-10-28T02:18:03.389Z,59.90
2022-10-28T02:20:50.078Z,59.30
2022-10-28T02:23:52.152Z,59.00
2022-10-28T02:26:22.473Z,59.30
2022-10-28T02:29:11.182Z,59.50
2022-10-28T02:31:59.640Z,59.10
2022-10-28T02:34:31.158Z,58.80
2022-10-28T02:37:00.004Z,58.80
2022-10-28T02:39:31.398Z,58.70
2022-10-28T02:42:05.563Z,58.50
2022-10-28T02:44:35.729Z,58.10
2022-10-28T02:47:07.775Z,58.20
2022-10-28T02:49:36.095Z,58.10
2022-10-28T02:52:05.501Z,57.80
2022-10-28T02:54:40.083Z,57.80
2022-10-28T02:57:27.953Z,57.70
2022-10-28T02:59:57.156Z,57.50
2022-10-28T03:02:24.613Z,57.60
2022-10-28T03:04:51.583Z,57.70
2022-10-28T03:07:18.329Z,57.70
2022-10-28T03:09:45.006Z,58.50
2022-10-28T03:12:11.861Z,58.00
2022-10-28T03:14:38.701Z,57.70
2022-10-28T03:17:05.572Z,57.60
2022-10-28T03:19:32.288Z,57.70
2022-10-28T03:21:59.290Z,57.80
2022-10-28T03:24:26.236Z,57.80
2022-10-28T03:26:52.952Z,58.00
2022-10-28T03:29:19.664Z,58.10
2022-10-28T03:31:46.448Z,57.90
2022-10-28T03:34:13.182Z,57.80
2022-10-28T03:36:39.926Z,57.80
2022-10-28T03:39:06.642Z,57.60
2022-10-28T03:41:33.415Z,57.20
2022-10-28T03:44:00.233Z,57.60
2022-10-28T03:46:27.266Z,57.10
2022-10-28T03:48:54.950Z,57.50
2022-10-28T03:51:21.731Z,56.80
2022-10-28T03:53:48.402Z,56.80
2022-10-28T03:56:15.103Z,56.30
2022-10-28T03:58:41.884Z,56.20
2022-10-28T04:01:08.741Z,56.00
2022-10-28T04:03:35.594Z,55.90
2022-10-28T04:06:02.277Z,56.00
2022-10-28T04:08:29.008Z,55.80
2022-10-28T04:10:55.688Z,55.60
2022-10-28T04:13:22.341Z,55.50
2022-10-28T04:15:49.018Z,55.40
2022-10-28T04:18:15.671Z,55.20
2022-10-28T04:20:42.532Z,55.20
2022-10-28T04:23:09.968Z,55.10
2022-10-28T04:25:36.726Z,55.30
2022-10-28T04:28:03.474Z,55.70
2022-10-28T04:30:30.267Z,54.90
2022-10-28T04:32:56.909Z,54.80
2022-10-28T04:35:23.797Z,55.50
2022-10-28T04:37:50.771Z,55.10
2022-10-28T04:40:17.703Z,55.10
2022-10-28T04:42:44.378Z,54.90
2022-10-28T04:45:11.273Z,55.30
2022-10-28T04:47:38.073Z,54.90
2022-10-28T04:50:05.155Z,54.90
2022-10-28T04:52:31.894Z,54.80
2022-10-28T04:54:58.605Z,54.70
2022-10-28T04:57:25.338Z,54.70
2022-10-28T04:59:52.033Z,54.80
2022-10-28T05:02:18.982Z,54.90
2022-10-28T05:04:45.826Z,54.70
2022-10-28T05:07:12.582Z,54.70
2022-10-28T05:09:39.268Z,54.40
2022-10-28T05:12:06.742Z,54.50
2022-10-28T05:14:33.456Z,54.60
2022-10-28T05:17:00.170Z,54.50
2022-10-28T05:19:26.841Z,54.30
2022-10-28T05:21:53.502Z,54.20
2022-10-28T05:24:20.199Z,54.10
2022-10-28T05:26:46.837Z,54.00
2022-10-28T05:29:13.485Z,53.90
2022-10-28T05:31:40.216Z,54.00
2022-10-28T05:34:07.011Z,53.80
2022-10-28T05:36:33.746Z,54.10
2022-10-28T05:39:00.420Z,54.10
2022-10-28T05:41:27.369Z,53.90
2022-10-28T05:43:54.075Z,54.10
2022-10-28T05:46:22.322Z,54.30
2022-10-28T05:48:49.499Z,54.20
2022-10-28T05:51:16.267Z,54.00
2022-10-28T05:53:44.368Z,54.10
2022-10-28T05:56:11.268Z,54.00
2022-10-28T05:58:38.006Z,53.90
2022-10-28T06:01:08.551Z,53.80
2022-10-28T06:03:35.690Z,53.80
2022-10-28T06:06:02.503Z,53.50
2022-10-28T06:08:29.214Z,53.60
2022-10-28T06:10:54.685Z,53.60
2022-10-28T06:13:21.775Z,53.70
2022-10-28T06:15:55.813Z,53.80
2022-10-28T06:18:23.259Z,53.90
2022-10-28T06:20:54.482Z,53.90
2022-10-28T06:23:22.168Z,53.90
2022-10-28T06:25:49.013Z,54.20
2022-10-28T06:28:15.828Z,54.20
2022-10-28T06:30:42.530Z,54.50
2022-10-28T06:33:09.216Z,55.00
2022-10-28T06:35:35.938Z,55.40
2022-10-28T06:38:04.853Z,55.50
2022-10-28T06:40:35.279Z,55.50
2022-10-28T06:43:06.175Z,55.70
2022-10-28T06:45:33.865Z,55.60
2022-10-28T06:48:04.716Z,55.70
2022-10-28T06:50:32.631Z,55.70
2022-10-28T06:52:59.408Z,55.70
2022-10-28T06:55:27.086Z,55.60
2022-10-28T06:57:54.496Z,55.60
2022-10-28T07:00:21.638Z,55.60
2022-10-28T07:02:53.077Z,55.50
2022-10-28T07:05:20.424Z,55.60
2022-10-28T07:07:47.207Z,55.60
2022-10-28T07:10:14.027Z,55.80
2022-10-28T07:12:40.720Z,55.70
2022-10-28T07:15:08.163Z,55.70
2022-10-28T07:17:34.860Z,55.70
2022-10-28T07:20:01.593Z,55.70
2022-10-28T07:22:28.276Z,55.70
2022-10-28T07:24:54.998Z,55.60
2022-10-28T07:27:21.779Z,55.40
2022-10-28T07:29:48.483Z,55.50
2022-10-28T07:32:15.481Z,55.40
2022-10-28T07:34:42.259Z,55.40
2022-10-28T07:37:11.094Z,55.40
2022-10-28T07:39:38.667Z,55.50
2022-10-28T07:42:05.515Z,55.40
2022-10-28T07:44:32.253Z,55.50
2022-10-28T07:46:58.924Z,55.70
2022-10-28T07:49:25.733Z,55.60
2022-10-28T07:51:52.463Z,55.70
2022-10-28T07:54:20.216Z,55.80
2022-10-28T07:56:46.872Z,55.90
2022-10-28T07:59:13.659Z,55.90
2022-10-28T08:01:40.467Z,55.80
2022-10-28T08:04:07.300Z,55.90
2022-10-28T08:06:35.399Z,55.90
2022-10-28T08:09:02.164Z,55.90
2022-10-28T08:11:29.054Z,55.70
2022-10-28T08:13:56.353Z,55.80
2022-10-28T08:16:23.502Z,55.90
2022-10-28T08:18:50.271Z,55.70
2022-10-28T08:21:17.056Z,55.80
2022-10-28T08:23:46.633Z,55.80
2022-10-28T08:26:15.383Z,55.70
2022-10-28T08:28:42.741Z,55.60
2022-10-28T08:31:10.139Z,55.70
2022-10-28T08:33:42.342Z,55.70
2022-10-28T08:36:11.056Z,55.50
2022-10-28T08:38:41.633Z,55.70
2022-10-28T08:41:36.418Z,55.60
2022-10-28T08:44:24.995Z,55.50
2022-10-28T08:47:45.776Z,55.30
2022-10-28T08:50:15.508Z,55.30
2022-10-28T08:52:47.857Z,55.30
2022-10-28T08:55:18.978Z,56.00
2022-10-28T08:57:49.552Z,55.70
2022-10-28T09:00:25.922Z,55.70
2022-10-28T09:03:06.812Z,55.50
2022-10-28T09:05:33.917Z,55.80
2022-10-28T09:08:01.782Z,55.70
2022-10-28T09:10:47.424Z,55.90
2022-10-28T09:13:23.861Z,55.90
2022-10-28T09:16:16.143Z,56.00
2022-10-28T09:18:54.687Z,55.80
2022-10-28T09:21:27.323Z,55.40
2022-10-28T09:23:59.264Z,55.50
2022-10-28T09:26:56.815Z,55.30
2022-10-28T09:29:45.488Z,55.50
2022-10-28T09:32:24.876Z,55.60
2022-10-28T09:35:12.037Z,55.20
2022-10-28T09:37:41.377Z,54.70
2022-10-28T09:40:23.525Z,54.80
2022-10-28T09:43:05.721Z,54.60
2022-10-28T09:45:33.929Z,54.60
2022-10-28T09:48:05.640Z,54.70
2022-10-28T09:50:33.252Z,54.80
2022-10-28T09:53:21.453Z,54.80
2022-10-28T09:55:49.931Z,54.80
2022-10-28T09:58:17.546Z,54.90
2022-10-28T10:00:44.609Z,54.80
2022-10-28T10:03:11.308Z,54.60
2022-10-28T10:05:42.223Z,54.80
2022-10-28T10:08:14.343Z,54.70
2022-10-28T10:10:51.798Z,54.60
2022-10-28T10:13:22.892Z,54.60
2022-10-28T10:15:54.102Z,54.30
2022-10-28T10:18:27.328Z,54.20
2022-10-28T10:20:58.453Z,54.20
2022-10-28T10:23:29.618Z,54.20
2022-10-28T10:26:09.570Z,54.10
2022-10-28T10:28:47.761Z,53.80
2022-10-28T10:31:26.892Z,54.00
2022-10-28T10:33:56.195Z,53.90
2022-10-28T10:36:31.522Z,54.10
2022-10-28T10:39:01.145Z,53.70
2022-10-28T10:41:39.667Z,54.00
2022-10-28T10:44:25.577Z,53.60
2022-10-28T10:46:55.258Z,53.30
2022-10-28T10:49:21.994Z,53.70
2022-10-28T10:52:01.047Z,54.10
2022-10-28T10:54:30.243Z,53.90
2022-10-28T10:57:15.214Z,53.90
2022-10-28T10:59:45.649Z,54.00
2022-10-28T11:02:26.064Z,53.50
2022-10-28T11:04:56.821Z,53.70
2022-10-28T11:07:23.548Z,53.90
2022-10-28T11:09:51.006Z,53.50
2022-10-28T11:12:31.980Z,53.50
2022-10-28T11:15:00.766Z,53.70
2022-10-28T11:20:25.417Z,53.80
2022-10-28T11:23:11.646Z,54.20
2022-10-28T11:25:44.633Z,54.40
2022-10-28T11:28:29.991Z,54.30
2022-10-28T11:31:18.580Z,54.20
2022-10-28T11:34:09.905Z,54.40
2022-10-28T11:37:09.699Z,54.40
2022-10-28T11:39:45.592Z,54.50
2022-10-28T11:42:24.633Z,54.30
2022-10-28T11:44:55.640Z,53.90
2022-10-28T11:47:37.660Z,54.00
2022-10-28T11:50:10.367Z,53.80
2022-10-28T11:52:45.522Z,53.70
2022-10-28T11:55:18.186Z,52.20
2022-10-28T11:57:53.168Z,52.20
2022-10-28T12:00:29.099Z,50.90
2022-10-28T12:03:04.348Z,51.30
2022-10-28T12:05:38.599Z,50.70
2022-10-28T12:08:19.164Z,50.50
2022-10-28T12:11:22.655Z,51.10
2022-10-28T12:13:58.960Z,50.60
2022-10-28T12:16:38.332Z,50.60
2022-10-28T12:19:14.204Z,50.80
2022-10-28T12:21:45.843Z,51.30
2022-10-28T12:24:17.192Z,51.00
2022-10-28T12:26:53.699Z,50.50
2022-10-28T12:29:24.744Z,50.90
2022-10-28T12:32:02.788Z,50.80
2022-10-28T12:34:59.965Z,50.70
2022-10-28T12:38:02.395Z,50.90
2022-10-28T12:40:37.596Z,50.50
2022-10-28T12:43:24.200Z,50.80
2022-10-28T12:45:53.615Z,50.30
2022-10-28T12:48:28.283Z,50.70
2022-10-28T12:51:19.213Z,50.40
2022-10-28T12:54:06.810Z,50.20
2022-10-28T12:56:36.994Z,48.60
2022-10-28T12:59:15.859Z,49.40
2022-10-28T13:01:45.486Z,49.20
2022-10-28T13:04:13.017Z,49.40
2022-10-28T13:07:08.837Z,48.50
2022-10-28T13:09:47.709Z,46.90
2022-10-28T13:12:29.545Z,47.80
2022-10-28T13:15:02.343Z,48.00
2022-10-28T13:17:53.465Z,48.70
2022-10-28T13:20:23.377Z,48.90
2022-10-28T13:23:13.468Z,49.40
2022-10-28T13:25:49.436Z,49.30
2022-10-28T13:28:19.146Z,48.80
2022-10-28T13:31:04.251Z,49.20
2022-10-28T13:33:34.148Z,47.80
2022-10-28T13:36:19.500Z,47.60
2022-10-28T13:38:52.036Z,47.10
2022-10-28T13:41:37.127Z,46.40
2022-10-28T13:44:09.862Z,45.80
2022-10-28T13:47:01.277Z,46.00
2022-10-28T13:49:34.941Z,45.80
2022-10-28T13:52:19.687Z,46.40
2022-10-28T13:54:46.340Z,45.90
2022-10-28T13:57:22.431Z,46.50
2022-10-28T13:59:56.219Z,45.50
2022-10-28T14:02:36.123Z,45.70
2022-10-28T14:05:05.893Z,45.80
2022-10-28T14:07:34.947Z,46.00
2022-10-28T14:10:22.261Z,45.90
2022-10-28T14:15:48.653Z,46.80
2022-10-28T14:18:41.522Z,47.10
2022-10-28T14:21:02.443Z,47.20
2022-10-28T14:23:29.178Z,46.50
2022-10-28T14:25:56.285Z,46.30
2022-10-28T14:28:32.113Z,45.30
2022-10-28T14:31:08.469Z,46.30
2022-10-28T14:33:42.316Z,45.40
2022-10-28T14:36:14.933Z,46.00
2022-10-28T14:38:53.600Z,46.00
2022-10-28T14:41:34.754Z,45.50
2022-10-28T14:44:22.306Z,45.80
2022-10-28T14:46:55.219Z,46.60
2022-10-28T14:49:29.153Z,46.80
2022-10-28T14:51:58.030Z,47.20
2022-10-28T14:54:40.891Z,47.40
2022-10-28T14:57:08.419Z,47.80
2022-10-28T14:59:43.405Z,48.10
2022-10-28T15:02:11.603Z,48.30
2022-10-28T15:04:40.064Z,48.50
2022-10-28T15:07:19.323Z,48.60
2022-10-28T15:09:50.636Z,48.60
2022-10-28T15:12:17.982Z,49.00
2022-10-28T15:14:53.236Z,49.00
2022-10-28T15:17:25.232Z,49.20
2022-10-28T15:20:03.488Z,49.30
2022-10-28T15:22:33.113Z,49.40
2022-10-28T15:25:12.032Z,49.30
2022-10-28T15:27:40.106Z,49.40
2022-10-28T15:30:23.481Z,49.70
2022-10-28T15:32:51.339Z,49.70
2022-10-28T15:35:30.528Z,49.80
2022-10-28T15:38:00.431Z,49.80
2022-10-28T15:40:28.638Z,49.90
2022-10-28T15:42:59.991Z,50.00
2022-10-28T15:45:29.269Z,49.90
2022-10-28T15:47:57.461Z,50.10
2022-10-28T15:50:32.466Z,50.30
2022-10-28T15:53:11.452Z,50.20
2022-10-28T15:56:02.793Z,50.10
2022-10-28T15:58:35.718Z,50.20
2022-10-28T16:01:02.901Z,50.30
2022-10-28T16:03:48.312Z,50.30
2022-10-28T16:06:41.433Z,50.40
2022-10-28T16:09:29.882Z,50.50
2022-10-28T16:11:58.576Z,50.50
2022-10-28T16:14:40.892Z,50.70
2022-10-28T16:17:31.134Z,50.90
2022-10-28T16:20:17.148Z,50.90
2022-10-28T16:22:45.869Z,51.00
2022-10-28T16:25:14.882Z,51.10
2022-10-28T16:27:41.737Z,51.20
2022-10-28T16:30:09.330Z,51.20
2022-10-28T16:32:42.111Z,51.30
2022-10-28T16:35:17.912Z,51.20
2022-10-28T16:37:46.619Z,51.20
2022-10-28T16:40:45.722Z,51.30
2022-10-28T16:43:03.679Z,51.20
2022-10-28T16:45:30.715Z,51.20
2022-10-28T16:47:57.740Z,51.20
2022-10-28T16:50:24.629Z,51.10
2022-10-28T16:52:51.426Z,51.10
2022-10-28T16:55:19.536Z,51.20
2022-10-28T16:57:46.308Z,51.20
2022-10-28T17:00:14.171Z,51.10
2022-10-28T17:02:41.317Z,51.20
2022-10-28T17:05:25.995Z,51.20
2022-10-28T17:07:56.006Z,51.20
2022-10-28T17:10:23.644Z,51.30
2022-10-28T17:12:50.575Z,51.40
2022-10-28T17:15:18.028Z,51.90
2022-10-28T17:17:44.863Z,51.30
2022-10-28T17:20:11.956Z,51.30
2022-10-28T17:22:40.642Z,51.30
2022-10-28T17:25:08.256Z,51.10
2022-10-28T17:27:34.995Z,51.00
2022-10-28T17:30:01.880Z,50.90
2022-10-28T17:32:28.690Z,50.90
2022-10-28T17:34:55.387Z,50.90
2022-10-28T17:37:22.065Z,50.80
2022-10-28T17:39:48.805Z,50.80
2022-10-28T17:42:15.539Z,50.60
2022-10-28T17:44:42.292Z,50.70
2022-10-28T17:47:09.026Z,50.70
2022-10-28T17:49:36.469Z,50.60
2022-10-28T17:52:03.252Z,50.70
2022-10-28T17:54:30.053Z,50.60
2022-10-28T17:56:56.806Z,50.60
2022-10-28T17:59:23.606Z,50.60
2022-10-28T18:01:50.488Z,50.60
2022-10-28T18:04:17.678Z,50.50
2022-10-28T18:06:44.400Z,50.50
2022-10-28T18:09:12.232Z,50.40
2022-10-28T18:11:40.026Z,50.50
2022-10-28T18:14:06.891Z,50.40
2022-10-28T18:16:35.646Z,50.40
2022-10-28T18:19:05.092Z,50.40
2022-10-28T18:21:32.140Z,50.30
2022-10-28T18:24:03.789Z,50.30
2022-10-28T18:26:32.250Z,50.30
2022-10-28T18:28:59.470Z,50.30
2022-10-28T18:31:26.263Z,50.30
2022-10-28T18:33:52.977Z,50.30
2022-10-28T18:36:22.202Z,50.30
2022-10-28T18:38:49.391Z,50.30
2022-10-28T18:41:27.517Z,50.30
2022-10-28T18:43:59.136Z,50.30
2022-10-28T18:46:26.920Z,50.30
2022-10-28T18:48:55.006Z,50.40
2022-10-28T18:51:21.780Z,50.40
2022-10-28T18:53:48.943Z,50.30
2022-10-28T18:56:20.744Z,50.20
2022-10-28T18:58:52.213Z,50.00
2022-10-28T19:01:21.520Z,49.90
2022-10-28T19:03:52.784Z,49.80
2022-10-28T19:06:20.187Z,49.60
2022-10-28T19:08:52.181Z,49.60
2022-10-28T19:11:18.938Z,49.50
2022-10-28T19:13:45.675Z,49.50
2022-10-28T19:18:44.004Z,49.40
2022-10-28T19:21:15.870Z,49.30
2022-10-28T19:23:43.222Z,49.40
2022-10-28T19:26:11.230Z,49.40
2022-10-28T19:28:43.156Z,49.30
2022-10-28T19:31:12.467Z,49.40
2022-10-28T19:33:39.630Z,49.40
2022-10-28T19:36:21.186Z,49.50
2022-10-28T19:38:48.949Z,49.40
2022-10-28T19:41:21.694Z,49.50
2022-10-28T19:43:49.749Z,49.50
2022-10-28T19:46:20.323Z,49.50
2022-10-28T19:48:50.937Z,49.50
2022-10-28T19:51:23.493Z,49.60
2022-10-28T19:53:52.157Z,49.50
2022-10-28T19:56:20.313Z,49.50
2022-10-28T19:58:49.105Z,49.60
2022-10-28T20:01:17.646Z,49.30
2022-10-28T20:03:48.942Z,49.40
2022-10-28T20:06:17.338Z,49.30
2022-10-28T20:08:46.287Z,49.10
2022-10-28T20:11:14.907Z,49.10
2022-10-28T20:13:41.655Z,49.00
2022-10-28T20:16:13.455Z,49.00
2022-10-28T20:18:40.458Z,49.00
2022-10-28T20:21:11.974Z,49.10
2022-10-28T20:23:38.828Z,49.10
2022-10-28T20:26:06.880Z,49.20
2022-10-28T20:28:34.208Z,49.30
2022-10-28T20:31:03.154Z,49.30
2022-10-28T20:33:31.151Z,49.40
2022-10-28T20:35:58.581Z,49.40
2022-10-28T20:38:26.118Z,49.50
2022-10-28T20:40:55.388Z,49.60
2022-10-28T20:43:23.474Z,49.70
2022-10-28T20:46:01.153Z,49.80
2022-10-28T20:48:29.886Z,49.80
2022-10-28T20:51:01.701Z,49.80
2022-10-28T20:53:31.330Z,49.90
2022-10-28T20:55:58.178Z,50.10
2022-10-28T20:58:28.191Z,50.10
2022-10-28T21:00:55.507Z,50.20
2022-10-28T21:03:22.365Z,50.20
2022-10-28T21:05:49.361Z,50.30
2022-10-28T21:08:16.048Z,50.40
2022-10-28T21:10:42.783Z,50.40
2022-10-28T21:13:09.547Z,50.50
2022-10-28T21:15:38.226Z,50.50
2022-10-28T21:18:05.947Z,50.60
2022-10-28T21:20:34.835Z,50.70
2022-10-28T21:23:01.578Z,50.80
2022-10-28T21:25:28.647Z,50.90
2022-10-28T21:27:57.340Z,50.90
2022-10-28T21:30:25.025Z,51.00
2022-10-28T21:32:52.184Z,51.20
2022-10-28T21:35:19.673Z,51.50
2022-10-28T21:37:46.424Z,51.70
2022-10-28T21:40:13.452Z,51.90
2022-10-28T21:42:40.175Z,52.20
2022-10-28T21:45:07.703Z,52.50
2022-10-28T21:47:34.831Z,52.70
2022-10-28T21:50:01.604Z,52.80
2022-10-28T21:52:28.365Z,53.10
2022-10-28T21:54:55.045Z,53.30
2022-10-28T21:57:24.064Z,53.50
2022-10-28T21:59:50.735Z,53.50
2022-10-28T22:02:17.790Z,53.60
2022-10-28T22:04:44.619Z,53.50
2022-10-28T22:07:11.311Z,53.20
2022-10-28T22:09:38.167Z,53.00
2022-10-28T22:12:05.184Z,52.90
2022-10-28T22:14:32.754Z,52.80
2022-10-28T22:16:59.425Z,52.60
2022-10-28T22:19:26.426Z,52.60
2022-10-28T22:21:53.145Z,52.70
2022-10-28T22:24:19.838Z,52.80
2022-10-28T22:26:46.552Z,53.00
2022-10-28T22:29:13.208Z,52.80
2022-10-28T22:31:39.867Z,52.60
2022-10-28T22:34:06.663Z,52.40
2022-10-28T22:36:33.616Z,52.40
2022-10-28T22:39:00.291Z,52.40
2022-10-28T22:41:29.344Z,52.60
2022-10-28T22:43:57.991Z,52.70
2022-10-28T22:46:28.205Z,52.80
2022-10-28T22:48:55.248Z,53.60
2022-10-28T22:51:22.701Z,53.20
2022-10-28T22:53:49.896Z,52.90
2022-10-28T22:56:21.668Z,53.40
2022-10-28T22:58:51.687Z,53.50
2022-10-28T23:01:19.658Z,53.50
2022-10-28T23:03:48.288Z,53.60
2022-10-28T23:06:16.895Z,53.60
2022-10-28T23:08:44.953Z,53.70
2022-10-28T23:11:12.875Z,53.70
2022-10-28T23:13:39.924Z,53.90
2022-10-28T23:16:08.876Z,53.90
2022-10-28T23:18:35.977Z,53.90
2022-10-28T23:21:11.171Z,53.90
2022-10-28T23:23:37.991Z,54.10
2022-10-28T23:26:05.068Z,53.90
2022-10-28T23:28:32.135Z,54.20
2022-10-28T23:31:03.444Z,54.20
2022-10-28T23:33:31.028Z,54.50
2022-10-28T23:35:58.455Z,54.50
2022-10-28T23:38:25.862Z,54.60
2022-10-28T23:41:04.126Z,54.80
2022-10-28T23:43:31.697Z,55.00
2022-10-28T23:45:59.036Z,55.10
2022-10-28T23:48:27.319Z,55.40
2022-10-28T23:50:54.525Z,55.50
2022-10-28T23:53:21.766Z,55.70
2022-10-28T23:55:49.671Z,55.70
2022-10-28T23:58:17.633Z,56.00
